Time,TemperatureF,DewpointF,PressureIn,WindDirection,WindDirectionDegrees,WindSpeedMPH,WindSpeedGustMPH,Humidity,HourlyPrecipIn,Conditions,Clouds,dailyrainin,SoftwareType,DateUTC
2013-02-05 00:00:00,37.4,28.5,30.00,WSW,241,0.0,0.0,70,0.00,,,0.00,Wunderground v.1.15,2013-02-05 05:00:00,
2013-02-05 00:05:00,37.7,28.8,29.99,SSW,211,0.0,0.0,70,0.00,,,0.00,Wunderground v.1.15,2013-02-05 05:05:00,
2013-02-05 00:10:00,38.0,28.7,29.99,SSW,196,0.0,0.0,69,0.00,,,0.00,Wunderground v.1.15,2013-02-05 05:10:00,
2013-02-05 00:20:00,38.3,28.7,29.99,SSW,211,0.0,0.0,68,0.00,,,0.00,Wunderground v.1.15,2013-02-05 05:20:00,
2013-02-05 00:25:00,38.5,28.9,29.98,SSW,198,0.0,0.0,68,0.00,,,0.00,Wunderground v.1.15,2013-02-05 05:25:00,
2013-02-05 00:30:00,38.5,28.9,29.98,SSW,198,0.0,0.0,68,0.00,,,0.00,Wunderground v.1.15,2013-02-05 05:30:00,
2013-02-05 00:40:00,38.5,28.9,29.98,SW,227,0.0,0.0,68,0.00,,,0.00,Wunderground v.1.15,2013-02-05 05:40:00,
2013-02-05 00:45:00,38.5,28.9,29.98,South,182,0.0,0.0,68,0.00,,,0.00,Wunderground v.1.15,2013-02-05 05:45:00,
2013-02-05 00:50:00,38.4,29.1,29.98,South,182,0.0,0.0,69,0.00,,,0.00,Wunderground v.1.15,2013-02-05 05:50:00,
2013-02-05 01:00:00,37.9,29.0,29.97,South,182,0.0,0.0,70,0.00,,,0.00,Wunderground v.1.15,2013-02-05 06:00:00,
2013-02-05 01:05:00,37.6,28.7,29.97,South,182,0.0,2.0,70,0.00,,,0.00,Wunderground v.1.15,2013-02-05 06:05:00,
2013-02-05 01:10:00,37.4,28.9,29.97,South,182,0.0,2.0,71,0.00,,,0.00,Wunderground v.1.15,2013-02-05 06:10:00,
2013-02-05 01:20:00,36.9,28.4,29.97,South,182,0.0,2.0,71,0.00,,,0.00,Wunderground v.1.15,2013-02-05 06:20:00,
2013-02-05 01:25:00,36.8,29.3,29.96,South,182,0.0,2.0,74,0.00,,,0.00,Wunderground v.1.15,2013-02-05 06:25:00,
2013-02-05 01:30:00,36.8,29.3,29.96,South,182,0.0,2.0,74,0.00,,,0.00,Wunderground v.1.15,2013-02-05 06:30:00,
2013-02-05 01:35:00,36.8,29.3,29.96,South,182,0.0,2.0,74,0.00,,,0.00,Wunderground v.1.15,2013-02-05 06:35:00,
2013-02-05 01:45:00,36.7,29.5,29.96,South,182,0.0,2.0,75,0.00,,,0.00,Wunderground v.1.15,2013-02-05 06:45:00,
2013-02-05 01:50:00,36.5,29.0,29.96,South,182,0.0,2.0,74,0.00,,,0.00,Wunderground v.1.15,2013-02-05 06:50:00,
2013-02-05 01:55:00,36.5,29.7,29.96,South,182,0.0,2.0,76,0.00,,,0.00,Wunderground v.1.15,2013-02-05 06:55:00,
2013-02-05 02:05:00,36.2,29.7,29.95,South,182,0.0,2.0,77,0.00,,,0.00,Wunderground v.1.15,2013-02-05 07:05:00,
2013-02-05 02:10:00,36.0,29.5,29.95,South,182,0.0,2.0,77,0.00,,,0.00,Wunderground v.1.15,2013-02-05 07:10:00,
2013-02-05 02:15:00,35.7,29.5,29.95,South,182,0.0,2.0,78,0.00,,,0.00,Wunderground v.1.15,2013-02-05 07:15:00,
2013-02-05 02:25:00,35.4,29.5,29.95,South,182,0.0,2.0,79,0.00,,,0.00,Wunderground v.1.15,2013-02-05 07:25:00,
2013-02-05 02:30:00,35.2,29.3,29.95,South,182,0.0,2.0,79,0.00,,,0.00,Wunderground v.1.15,2013-02-05 07:30:00,
2013-02-05 02:35:00,35.1,29.6,29.95,South,182,0.0,2.0,80,0.00,,,0.00,Wunderground v.1.15,2013-02-05 07:35:00,
2013-02-05 02:45:00,34.9,29.4,29.95,South,182,0.0,2.0,80,0.00,,,0.00,Wunderground v.1.15,2013-02-05 07:45:00,
2013-02-05 02:50:00,34.9,29.4,29.95,South,182,0.0,2.0,80,0.00,,,0.00,Wunderground v.1.15,2013-02-05 07:50:00,
2013-02-05 02:55:00,35.0,29.5,29.95,South,182,0.0,2.0,80,0.00,,,0.00,Wunderground v.1.15,2013-02-05 07:55:00,
2013-02-05 03:05:00,34.9,29.7,29.95,South,182,0.0,2.0,81,0.00,,,0.00,Wunderground v.1.15,2013-02-05 08:05:00,
2013-02-05 03:10:00,34.8,29.9,29.94,South,182,0.0,2.0,82,0.00,,,0.00,Wunderground v.1.15,2013-02-05 08:10:00,
2013-02-05 03:15:00,34.8,29.9,29.94,South,182,0.0,2.0,82,0.00,,,0.00,Wunderground v.1.15,2013-02-05 08:15:00,
2013-02-05 03:20:00,34.8,29.9,29.94,South,182,0.0,2.0,82,0.00,,,0.00,Wunderground v.1.15,2013-02-05 08:20:00,
2013-02-05 03:30:00,34.9,29.7,29.95,South,182,0.0,2.0,81,0.00,,,0.00,Wunderground v.1.15,2013-02-05 08:30:00,
2013-02-05 03:35:00,35.1,30.2,29.94,South,182,0.0,2.0,82,0.00,,,0.00,Wunderground v.1.15,2013-02-05 08:35:00,
2013-02-05 03:40:00,35.1,30.5,29.94,South,182,0.0,2.0,83,0.00,,,0.00,Wunderground v.1.15,2013-02-05 08:40:00,
2013-02-05 03:45:00,35.1,30.5,29.94,South,182,0.0,2.0,83,0.00,,,0.00,Wunderground v.1.15,2013-02-05 08:45:00,
2013-02-05 03:55:00,35.7,30.1,29.93,South,182,0.0,2.0,80,0.00,,,0.00,Wunderground v.1.15,2013-02-05 08:55:00,
2013-02-05 04:00:00,36.2,30.6,29.93,South,182,0.0,2.0,80,0.00,,,0.00,Wunderground v.1.15,2013-02-05 09:00:00,
2013-02-05 04:05:00,36.6,30.4,29.93,South,182,0.0,2.0,78,0.00,,,0.00,Wunderground v.1.15,2013-02-05 09:05:00,
2013-02-05 04:15:00,37.4,30.8,29.92,South,182,0.0,2.0,77,0.00,,,0.00,Wunderground v.1.15,2013-02-05 09:15:00,
2013-02-05 04:20:00,37.6,30.7,29.92,South,182,0.0,2.0,76,0.00,,,0.00,Wunderground v.1.15,2013-02-05 09:20:00,
2013-02-05 04:25:00,37.7,30.2,29.93,SSW,194,0.0,2.0,74,0.00,,,0.00,Wunderground v.1.15,2013-02-05 09:25:00,
2013-02-05 04:35:00,38.0,30.1,29.94,WSW,254,0.0,2.0,73,0.00,,,0.00,Wunderground v.1.15,2013-02-05 09:35:00,
2013-02-05 04:40:00,38.0,30.1,29.93,WSW,254,0.0,2.0,73,0.00,,,0.00,Wunderground v.1.15,2013-02-05 09:40:00,
2013-02-05 04:45:00,37.9,30.0,29.93,WSW,254,0.0,2.0,73,0.00,,,0.00,Wunderground v.1.15,2013-02-05 09:45:00,
2013-02-05 04:55:00,37.7,29.8,29.93,WSW,254,0.0,2.0,73,0.00,,,0.00,Wunderground v.1.15,2013-02-05 09:55:00,
2013-02-05 05:00:00,37.6,30.4,29.93,WSW,254,0.0,2.0,75,0.00,,,0.00,Wunderground v.1.15,2013-02-05 10:00:00,
2013-02-05 05:05:00,37.4,30.2,29.93,WSW,254,0.0,2.0,75,0.00,,,0.00,Wunderground v.1.15,2013-02-05 10:05:00,
2013-02-05 05:10:00,37.2,30.7,29.94,WSW,254,0.0,2.0,77,0.00,,,0.00,Wunderground v.1.15,2013-02-05 10:10:00,
2013-02-05 05:20:00,36.6,30.4,29.94,WSW,254,0.0,2.0,78,0.00,,,0.00,Wunderground v.1.15,2013-02-05 10:20:00,
2013-02-05 05:25:00,36.2,30.6,29.94,WSW,254,0.0,2.0,80,0.00,,,0.00,Wunderground v.1.15,2013-02-05 10:25:00,
2013-02-05 05:30:00,35.8,30.2,29.94,WSW,254,0.0,2.0,80,0.00,,,0.00,Wunderground v.1.15,2013-02-05 10:30:00,
2013-02-05 05:40:00,35.3,30.1,29.95,WSW,254,0.0,2.0,81,0.00,,,0.00,Wunderground v.1.15,2013-02-05 10:40:00,
2013-02-05 05:45:00,35.1,30.2,29.94,WSW,254,0.0,2.0,82,0.00,,,0.00,Wunderground v.1.15,2013-02-05 10:45:00,
2013-02-05 05:55:00,34.7,30.1,29.94,WSW,254,0.0,2.0,83,0.00,,,0.00,Wunderground v.1.15,2013-02-05 10:55:00,
2013-02-05 06:00:00,34.6,30.3,29.95,WSW,254,0.0,2.0,84,0.00,,,0.00,Wunderground v.1.15,2013-02-05 11:00:00,
2013-02-05 06:10:00,34.4,30.1,29.95,WSW,254,0.0,2.0,84,0.00,,,0.00,Wunderground v.1.15,2013-02-05 11:10:00,
2013-02-05 06:15:00,34.5,30.5,29.95,WSW,254,0.0,2.0,85,0.00,,,0.00,Wunderground v.1.15,2013-02-05 11:15:00,
2013-02-05 06:20:00,34.4,30.6,29.95,WSW,254,0.0,2.0,86,0.00,,,0.00,Wunderground v.1.15,2013-02-05 11:20:00,
2013-02-05 06:25:00,34.4,30.4,29.95,WSW,254,0.0,2.0,85,0.00,,,0.00,Wunderground v.1.15,2013-02-05 11:25:00,
2013-02-05 06:35:00,34.4,30.6,29.94,WSW,254,0.0,2.0,86,0.00,,,0.00,Wunderground v.1.15,2013-02-05 11:35:00,
2013-02-05 06:40:00,34.4,30.6,29.95,WSW,254,0.0,2.0,86,0.00,,,0.00,Wunderground v.1.15,2013-02-05 11:40:00,
2013-02-05 06:45:00,34.7,30.7,29.95,WSW,254,0.0,2.0,85,0.00,,,0.00,Wunderground v.1.15,2013-02-05 11:45:00,
2013-02-05 06:55:00,35.3,30.7,29.96,WSW,254,0.0,2.0,83,0.00,,,0.00,Wunderground v.1.15,2013-02-05 11:55:00,
2013-02-05 07:00:00,35.4,31.3,29.95,WSW,254,0.0,2.0,85,0.00,,,0.00,Wunderground v.1.15,2013-02-05 12:00:00,
2013-02-05 07:05:00,35.4,31.3,29.95,NNE,13,0.0,2.0,85,0.00,,,0.00,Wunderground v.1.15,2013-02-05 12:05:00,
2013-02-05 07:15:00,35.4,31.6,29.95,NNE,13,0.0,2.0,86,0.00,,,0.00,Wunderground v.1.15,2013-02-05 12:15:00,
2013-02-05 07:20:00,35.5,31.1,29.96,NNE,13,0.0,2.0,84,0.00,,,0.00,Wunderground v.1.15,2013-02-05 12:20:00,
2013-02-05 07:25:00,35.6,30.9,29.95,NNE,13,0.0,2.0,83,0.00,,,0.00,Wunderground v.1.15,2013-02-05 12:25:00,
2013-02-05 07:30:00,35.8,31.1,29.95,NNE,13,0.0,2.0,83,0.00,,,0.00,Wunderground v.1.15,2013-02-05 12:30:00,
2013-02-05 07:40:00,36.1,31.1,29.95,NNE,13,0.0,2.0,82,0.00,,,0.00,Wunderground v.1.15,2013-02-05 12:40:00,
2013-02-05 07:45:00,36.3,31.0,29.97,SW,234,0.0,2.0,81,0.00,,,0.00,Wunderground v.1.15,2013-02-05 12:45:00,
2013-02-05 07:50:00,36.7,31.1,29.96,SW,234,0.0,2.0,80,0.00,,,0.00,Wunderground v.1.15,2013-02-05 12:50:00,
2013-02-05 08:00:00,37.0,31.1,29.97,SW,234,0.0,2.0,79,0.00,,,0.00,Wunderground v.1.15,2013-02-05 13:00:00,
2013-02-05 08:05:00,37.1,31.2,29.97,SW,234,0.0,2.0,79,0.00,,,0.00,Wunderground v.1.15,2013-02-05 13:05:00,
2013-02-05 08:10:00,37.1,31.2,29.97,SW,234,0.0,2.0,79,0.00,,,0.00,Wunderground v.1.15,2013-02-05 13:10:00,
2013-02-05 08:20:00,37.1,30.9,29.97,SSW,200,0.0,2.0,78,0.00,,,0.00,Wunderground v.1.15,2013-02-05 13:20:00,
2013-02-05 08:25:00,37.1,30.9,29.97,SSW,198,0.0,2.0,78,0.00,,,0.00,Wunderground v.1.15,2013-02-05 13:25:00,
2013-02-05 08:30:00,37.3,31.1,29.97,SSW,198,0.0,2.0,78,0.00,,,0.00,Wunderground v.1.15,2013-02-05 13:30:00,
2013-02-05 08:40:00,38.6,32.0,29.98,SW,229,1.0,2.0,77,0.00,,,0.00,Wunderground v.1.15,2013-02-05 13:40:00,
2013-02-05 08:45:00,39.2,31.9,29.97,SSW,207,1.0,2.0,75,0.00,,,0.00,Wunderground v.1.15,2013-02-05 13:45:00,
2013-02-05 08:50:00,39.5,32.2,29.97,South,182,1.0,1.0,75,0.00,,,0.00,Wunderground v.1.15,2013-02-05 13:50:00,
2013-02-05 08:55:00,39.8,32.2,29.97,South,183,0.0,2.0,74,0.00,,,0.00,Wunderground v.1.15,2013-02-05 13:55:00,
2013-02-05 09:05:00,40.1,31.8,29.97,SSW,197,1.0,4.0,72,0.00,,,0.00,Wunderground v.1.15,2013-02-05 14:05:00,
2013-02-05 09:10:00,40.2,32.2,29.97,South,171,1.0,1.0,73,0.00,,,0.00,Wunderground v.1.15,2013-02-05 14:10:00,
2013-02-05 09:20:00,40.5,32.5,29.97,South,176,0.0,2.0,73,0.00,,,0.00,Wunderground v.1.15,2013-02-05 14:20:00,
2013-02-05 09:25:00,40.6,32.3,29.98,SSW,207,0.0,2.0,72,0.00,,,0.00,Wunderground v.1.15,2013-02-05 14:25:00,
2013-02-05 09:30:00,40.8,32.1,29.98,SW,219,0.0,2.0,71,0.00,,,0.00,Wunderground v.1.15,2013-02-05 14:30:00,
2013-02-05 09:35:00,41.0,32.7,29.98,SSW,195,0.0,2.0,72,0.00,,,0.00,Wunderground v.1.15,2013-02-05 14:35:00,
2013-02-05 09:45:00,41.5,33.5,29.97,SSE,159,1.0,2.0,73,0.00,,,0.00,Wunderground v.1.15,2013-02-05 14:45:00,
2013-02-05 09:50:00,41.6,32.9,29.97,South,185,0.0,2.0,71,0.00,,,0.00,Wunderground v.1.15,2013-02-05 14:50:00,
2013-02-05 09:55:00,41.6,32.9,29.97,South,178,0.0,2.0,71,0.00,,,0.00,Wunderground v.1.15,2013-02-05 14:55:00,
2013-02-05 10:00:00,41.8,33.1,29.97,SSE,162,0.0,2.0,71,0.00,,,0.00,Wunderground v.1.15,2013-02-05 15:00:00,
2013-02-05 10:10:00,42.0,33.3,29.97,SSW,201,0.0,2.0,71,0.00,,,0.00,Wunderground v.1.15,2013-02-05 15:10:00,
2013-02-05 10:15:00,42.3,33.2,29.98,SSW,207,0.0,2.0,70,0.00,,,0.00,Wunderground v.1.15,2013-02-05 15:15:00,
2013-02-05 10:20:00,42.5,33.4,29.98,SW,214,1.0,1.0,70,0.00,,,0.00,Wunderground v.1.15,2013-02-05 15:20:00,
2013-02-05 10:30:00,42.7,34.3,29.98,SSE,166,1.0,1.0,72,0.00,,,0.00,Wunderground v.1.15,2013-02-05 15:30:00,
2013-02-05 10:35:00,42.9,34.1,29.98,South,178,1.0,2.0,71,0.00,,,0.00,Wunderground v.1.15,2013-02-05 15:35:00,
2013-02-05 10:40:00,43.1,34.7,29.98,South,173,0.0,2.0,72,0.00,,,0.00,Wunderground v.1.15,2013-02-05 15:40:00,
2013-02-05 10:50:00,43.9,34.4,29.98,SSW,209,1.0,1.0,69,0.00,,,0.00,Wunderground v.1.15,2013-02-05 15:50:00,
2013-02-05 10:55:00,44.2,34.7,29.98,SSE,166,0.0,2.0,69,0.00,,,0.00,Wunderground v.1.15,2013-02-05 15:55:00,
2013-02-05 11:00:00,44.4,34.5,29.97,SSE,165,0.0,2.0,68,0.00,,,0.00,Wunderground v.1.15,2013-02-05 16:00:00,
2013-02-05 11:10:00,45.0,34.3,29.98,SSW,206,1.0,2.0,66,0.00,,,0.00,Wunderground v.1.15,2013-02-05 16:10:00,
2013-02-05 11:15:00,45.1,34.4,29.97,SSE,164,1.0,2.0,66,0.00,,,0.00,Wunderground v.1.15,2013-02-05 16:15:00,
2013-02-05 11:20:00,45.2,34.1,29.97,SSW,211,1.0,1.0,65,0.00,,,0.00,Wunderground v.1.15,2013-02-05 16:20:00,
2013-02-05 11:25:00,45.3,34.2,29.97,SSW,202,0.0,2.0,65,0.00,,,0.00,Wunderground v.1.15,2013-02-05 16:25:00,
2013-02-05 11:35:00,45.7,35.0,29.97,SSW,196,0.0,2.0,66,0.00,,,0.00,Wunderground v.1.15,2013-02-05 16:35:00,
2013-02-05 11:40:00,46.0,35.3,29.97,South,178,1.0,1.0,66,0.00,,,0.00,Wunderground v.1.15,2013-02-05 16:40:00,
2013-02-05 11:45:00,46.4,35.3,29.97,SW,226,1.0,2.0,65,0.00,,,0.00,Wunderground v.1.15,2013-02-05 16:45:00,
2013-02-05 11:55:00,47.2,35.2,29.95,SSE,157,1.0,2.0,63,0.00,,,0.00,Wunderground v.1.15,2013-02-05 16:55:00,
2013-02-05 12:00:00,47.9,35.1,29.95,SSW,192,1.0,1.0,61,0.00,,,0.00,Wunderground v.1.15,2013-02-05 17:00:00,
2013-02-05 12:05:00,48.7,35.0,29.95,WSW,256,1.0,2.0,59,0.00,,,0.00,Wunderground v.1.15,2013-02-05 17:05:00,
2013-02-05 12:15:00,49.9,34.8,29.95,NNW,340,1.0,2.0,56,0.00,,,0.00,Wunderground v.1.15,2013-02-05 17:15:00,
2013-02-05 12:20:00,50.4,35.3,29.95,WSW,239,1.0,1.0,56,0.00,,,0.00,Wunderground v.1.15,2013-02-05 17:20:00,
2013-02-05 12:25:00,50.6,34.6,29.94,SSW,209,0.0,2.0,54,0.00,,,0.00,Wunderground v.1.15,2013-02-05 17:25:00,
2013-02-05 12:35:00,50.9,34.8,29.94,SSW,200,1.0,2.0,54,0.00,,,0.00,Wunderground v.1.15,2013-02-05 17:35:00,
2013-02-05 12:40:00,51.4,34.8,29.94,SSE,158,1.0,3.0,53,0.00,,,0.00,Wunderground v.1.15,2013-02-05 17:40:00,
2013-02-05 12:45:00,52.3,34.7,29.94,SSE,155,1.0,3.0,51,0.00,,,0.00,Wunderground v.1.15,2013-02-05 17:45:00,
2013-02-05 12:55:00,52.9,34.2,29.93,SSW,202,1.0,3.0,49,0.00,,,0.00,Wunderground v.1.15,2013-02-05 17:55:00,
2013-02-05 13:00:00,53.3,35.1,29.93,SW,234,1.0,3.0,50,0.00,,,0.00,Wunderground v.1.15,2013-02-05 18:00:00,
2013-02-05 13:05:00,53.5,34.8,29.92,SSW,201,2.0,3.0,49,0.00,,,0.00,Wunderground v.1.15,2013-02-05 18:05:00,
2013-02-05 13:10:00,53.4,35.2,29.92,South,169,1.0,2.0,50,0.00,,,0.00,Wunderground v.1.15,2013-02-05 18:10:00,
2013-02-05 13:20:00,53.5,35.8,29.92,South,188,1.0,2.0,51,0.00,,,0.00,Wunderground v.1.15,2013-02-05 18:20:00,
2013-02-05 13:25:00,53.9,35.7,29.92,South,181,1.0,2.0,50,0.00,,,0.00,Wunderground v.1.15,2013-02-05 18:25:00,
2013-02-05 13:35:00,54.5,35.7,29.91,WSW,250,1.0,2.0,49,0.00,,,0.00,Wunderground v.1.15,2013-02-05 18:35:00,
2013-02-05 13:40:00,54.8,35.5,29.91,West,273,1.0,1.0,48,0.00,,,0.00,Wunderground v.1.15,2013-02-05 18:40:00,
2013-02-05 13:45:00,54.7,34.3,29.91,WNW,283,1.0,2.0,46,0.00,,,0.00,Wunderground v.1.15,2013-02-05 18:45:00,
2013-02-05 13:50:00,54.7,34.3,29.91,West,265,1.0,1.0,46,0.00,,,0.00,Wunderground v.1.15,2013-02-05 18:50:00,
2013-02-05 14:00:00,55.8,34.2,29.90,WNW,288,1.0,2.0,44,0.00,,,0.00,Wunderground v.1.15,2013-02-05 19:00:00,
2013-02-05 14:05:00,56.8,35.1,29.90,WSW,246,1.0,4.0,44,0.00,,,0.00,Wunderground v.1.15,2013-02-05 19:05:00,
2013-02-05 14:10:00,57.0,34.7,29.90,SE,135,2.0,2.0,43,0.00,,,0.00,Wunderground v.1.15,2013-02-05 19:10:00,
2013-02-05 14:15:00,57.3,34.4,29.90,SW,223,2.0,2.0,42,0.00,,,0.00,Wunderground v.1.15,2013-02-05 19:15:00,
2013-02-05 14:25:00,58.3,35.3,29.90,WSW,251,2.0,2.0,42,0.00,,,0.00,Wunderground v.1.15,2013-02-05 19:25:00,
2013-02-05 14:30:00,58.8,34.5,29.90,SSW,212,1.0,1.0,40,0.00,,,0.00,Wunderground v.1.15,2013-02-05 19:30:00,
2013-02-05 14:40:00,59.5,35.8,29.89,WNW,295,1.0,2.0,41,0.00,,,0.00,Wunderground v.1.15,2013-02-05 19:40:00,
2013-02-05 14:45:00,59.5,35.1,29.90,West,264,3.0,4.0,40,0.00,,,0.00,Wunderground v.1.15,2013-02-05 19:45:00,
2013-02-05 14:50:00,59.3,34.3,29.90,WSW,247,3.0,3.0,39,0.00,,,0.00,Wunderground v.1.15,2013-02-05 19:50:00,
2013-02-05 14:55:00,59.5,35.1,29.90,South,188,3.0,4.0,40,0.00,,,0.00,Wunderground v.1.15,2013-02-05 19:55:00,
2013-02-05 15:05:00,59.9,36.1,29.90,South,177,2.0,2.0,41,0.00,,,0.00,Wunderground v.1.15,2013-02-05 20:05:00,
2013-02-05 15:15:00,60.3,35.9,29.90,WSW,249,2.0,5.0,40,0.00,,,0.00,Wunderground v.1.15,2013-02-05 20:15:00,
2013-02-05 15:20:00,60.4,35.3,29.90,SSW,192,2.0,2.0,39,0.00,,,0.00,Wunderground v.1.15,2013-02-05 20:20:00,
2013-02-05 15:25:00,60.4,35.9,29.90,WNW,297,2.0,7.0,40,0.00,,,0.00,Wunderground v.1.15,2013-02-05 20:25:00,
2013-02-05 15:30:00,59.3,35.6,29.90,WNW,290,3.0,3.0,41,0.00,,,0.00,Wunderground v.1.15,2013-02-05 20:30:00,
2013-02-05 15:40:00,58.4,35.4,29.90,West,268,2.0,5.0,42,0.00,,,0.00,Wunderground v.1.15,2013-02-05 20:40:00,
2013-02-05 15:45:00,59.0,35.9,29.90,WSW,257,2.0,5.0,42,0.00,,,0.00,Wunderground v.1.15,2013-02-05 20:45:00,
2013-02-05 15:55:00,59.9,36.1,29.90,SW,227,2.0,4.0,41,0.00,,,0.00,Wunderground v.1.15,2013-02-05 20:55:00,
2013-02-05 16:00:00,60.2,35.8,29.90,WNW,285,2.0,2.0,40,0.00,,,0.00,Wunderground v.1.15,2013-02-05 21:00:00,
2013-02-05 16:05:00,60.4,35.9,29.89,SW,227,2.0,2.0,40,0.00,,,0.00,Wunderground v.1.15,2013-02-05 21:05:00,
2013-02-05 16:10:00,60.5,36.0,29.90,WSW,252,2.0,2.0,40,0.00,,,0.00,Wunderground v.1.15,2013-02-05 21:10:00,
2013-02-05 16:20:00,60.7,34.9,29.90,South,186,1.0,2.0,38,0.00,,,0.00,Wunderground v.1.15,2013-02-05 21:20:00,
2013-02-05 16:25:00,60.8,35.7,29.90,South,186,0.0,2.0,39,0.00,,,0.00,Wunderground v.1.15,2013-02-05 21:25:00,
2013-02-05 16:35:00,60.2,35.1,29.89,WSW,255,1.0,2.0,39,0.00,,,0.00,Wunderground v.1.15,2013-02-05 21:35:00,
2013-02-05 16:40:00,60.2,35.8,29.89,SW,215,1.0,2.0,40,0.00,,,0.00,Wunderground v.1.15,2013-02-05 21:40:00,
2013-02-05 16:45:00,60.2,35.8,29.90,WNW,288,2.0,2.0,40,0.00,,,0.00,Wunderground v.1.15,2013-02-05 21:45:00,
2013-02-05 16:50:00,59.9,35.5,29.89,SSE,163,2.0,2.0,40,0.00,,,0.00,Wunderground v.1.15,2013-02-05 21:50:00,
2013-02-05 17:00:00,59.4,35.7,29.90,West,269,1.0,1.0,41,0.00,,,0.00,Wunderground v.1.15,2013-02-05 22:00:00,
2013-02-05 17:05:00,59.1,35.4,29.89,West,266,0.0,2.0,41,0.00,,,0.00,Wunderground v.1.15,2013-02-05 22:05:00,
2013-02-05 17:10:00,58.7,35.0,29.89,WNW,301,1.0,2.0,41,0.00,,,0.00,Wunderground v.1.15,2013-02-05 22:10:00,
2013-02-05 17:20:00,58.1,35.7,29.89,SW,236,1.0,2.0,43,0.00,,,0.00,Wunderground v.1.15,2013-02-05 22:20:00,
2013-02-05 17:25:00,57.5,36.9,29.89,SW,236,0.0,2.0,46,0.00,,,0.00,Wunderground v.1.15,2013-02-05 22:25:00,
2013-02-05 17:30:00,56.9,36.3,29.89,SW,236,0.0,2.0,46,0.00,,,0.00,Wunderground v.1.15,2013-02-05 22:30:00,
2013-02-05 17:40:00,55.4,37.6,29.89,SW,236,0.0,2.0,51,0.00,,,0.00,Wunderground v.1.15,2013-02-05 22:40:00,
2013-02-05 17:45:00,54.5,37.2,29.90,SW,236,0.0,2.0,52,0.00,,,0.00,Wunderground v.1.15,2013-02-05 22:45:00,
2013-02-05 17:50:00,53.7,37.0,29.90,SW,236,0.0,2.0,53,0.00,,,0.00,Wunderground v.1.15,2013-02-05 22:50:00,
2013-02-05 17:55:00,52.9,37.2,29.90,SW,236,0.0,2.0,55,0.00,,,0.00,Wunderground v.1.15,2013-02-05 22:55:00,
2013-02-05 18:05:00,51.2,36.9,29.91,SW,236,0.0,2.0,58,0.00,,,0.00,Wunderground v.1.15,2013-02-05 23:05:00,
2013-02-05 18:10:00,50.3,36.9,29.91,SW,236,0.0,2.0,60,0.00,,,0.00,Wunderground v.1.15,2013-02-05 23:10:00,
2013-02-05 18:15:00,49.7,37.2,29.91,SW,236,0.0,2.0,62,0.00,,,0.00,Wunderground v.1.15,2013-02-05 23:15:00,
2013-02-05 18:25:00,48.4,36.4,29.92,SW,236,0.0,2.0,63,0.00,,,0.00,Wunderground v.1.15,2013-02-05 23:25:00,
2013-02-05 18:30:00,47.8,36.2,29.91,SW,236,0.0,2.0,64,0.00,,,0.00,Wunderground v.1.15,2013-02-05 23:30:00,
2013-02-05 18:35:00,47.3,36.1,29.92,SW,236,0.0,2.0,65,0.00,,,0.00,Wunderground v.1.15,2013-02-05 23:35:00,
2013-02-05 18:40:00,46.8,36.0,29.92,SW,236,0.0,2.0,66,0.00,,,0.00,Wunderground v.1.15,2013-02-05 23:40:00,
2013-02-05 18:50:00,46.0,36.0,29.92,SW,236,0.0,2.0,68,0.00,,,0.00,Wunderground v.1.15,2013-02-05 23:50:00,
2013-02-05 18:55:00,45.6,36.0,29.93,SW,236,0.0,2.0,69,0.00,,,0.00,Wunderground v.1.15,2013-02-05 23:55:00,
2013-02-05 19:05:00,45.8,36.2,29.93,SW,236,0.0,2.0,69,0.00,,,0.00,Wunderground v.1.15,2013-02-06 00:05:00,
2013-02-05 19:10:00,46.5,36.1,29.93,SW,236,0.0,2.0,67,0.00,,,0.00,Wunderground v.1.15,2013-02-06 00:10:00,
2013-02-05 19:15:00,46.9,36.1,29.93,SW,236,0.0,2.0,66,0.00,,,0.00,Wunderground v.1.15,2013-02-06 00:15:00,
2013-02-05 19:20:00,47.0,35.8,29.93,SW,236,0.0,2.0,65,0.00,,,0.00,Wunderground v.1.15,2013-02-06 00:20:00,
2013-02-05 19:30:00,46.5,35.7,29.94,SW,236,0.0,2.0,66,0.00,,,0.00,Wunderground v.1.15,2013-02-06 00:30:00,
2013-02-05 19:35:00,46.0,35.7,29.94,SW,236,0.0,2.0,67,0.00,,,0.00,Wunderground v.1.15,2013-02-06 00:35:00,
2013-02-05 19:40:00,45.2,35.3,29.94,SW,236,0.0,2.0,68,0.00,,,0.00,Wunderground v.1.15,2013-02-06 00:40:00,
2013-02-05 19:45:00,44.5,35.3,29.94,SW,236,0.0,2.0,70,0.00,,,0.00,Wunderground v.1.15,2013-02-06 00:45:00,
2013-02-05 19:55:00,44.5,35.3,29.94,SW,236,0.0,2.0,70,0.00,,,0.00,Wunderground v.1.15,2013-02-06 00:55:00,
2013-02-05 20:00:00,44.1,34.9,29.94,SW,236,0.0,2.0,70,0.00,,,0.00,Wunderground v.1.15,2013-02-06 01:00:00,
2013-02-05 20:05:00,43.6,34.8,29.95,SW,236,0.0,2.0,71,0.00,,,0.00,Wunderground v.1.15,2013-02-06 01:05:00,
2013-02-05 20:15:00,42.8,34.7,29.95,SW,236,0.0,2.0,73,0.00,,,0.00,Wunderground v.1.15,2013-02-06 01:15:00,
2013-02-05 20:20:00,42.3,34.6,29.95,SW,236,0.0,2.0,74,0.00,,,0.00,Wunderground v.1.15,2013-02-06 01:20:00,
2013-02-05 20:25:00,41.8,34.5,29.95,SW,236,0.0,2.0,75,0.00,,,0.00,Wunderground v.1.15,2013-02-06 01:25:00,
2013-02-05 20:35:00,41.0,34.0,29.95,SW,236,0.0,2.0,76,0.00,,,0.00,Wunderground v.1.15,2013-02-06 01:35:00,
2013-02-05 20:40:00,40.7,34.0,29.95,SW,236,0.0,2.0,77,0.00,,,0.00,Wunderground v.1.15,2013-02-06 01:40:00,
2013-02-05 20:50:00,40.0,34.0,29.95,SW,236,0.0,2.0,79,0.00,,,0.00,Wunderground v.1.15,2013-02-06 01:50:00,
2013-02-05 20:55:00,39.7,33.7,29.95,SW,236,0.0,2.0,79,0.00,,,0.00,Wunderground v.1.15,2013-02-06 01:55:00,
2013-02-05 21:00:00,39.5,33.8,29.95,SW,236,0.0,2.0,80,0.00,,,0.00,Wunderground v.1.15,2013-02-06 02:00:00,
2013-02-05 21:10:00,38.8,33.2,29.95,SW,236,0.0,2.0,80,0.00,,,0.00,Wunderground v.1.15,2013-02-06 02:10:00,
2013-02-05 21:15:00,38.6,33.3,29.95,SW,236,0.0,2.0,81,0.00,,,0.00,Wunderground v.1.15,2013-02-06 02:15:00,
2013-02-05 21:20:00,38.5,33.2,29.96,SW,236,0.0,2.0,81,0.00,,,0.00,Wunderground v.1.15,2013-02-06 02:20:00,
2013-02-05 21:30:00,38.1,33.1,29.96,SW,236,0.0,2.0,82,0.00,,,0.00,Wunderground v.1.15,2013-02-06 02:30:00,
2013-02-05 21:35:00,37.8,32.8,29.96,SW,236,0.0,2.0,82,0.00,,,0.00,Wunderground v.1.15,2013-02-06 02:35:00,
2013-02-05 21:40:00,37.5,32.8,29.96,SW,236,0.0,2.0,83,0.00,,,0.00,Wunderground v.1.15,2013-02-06 02:40:00,
2013-02-05 21:50:00,37.1,32.4,29.97,SW,236,0.0,2.0,83,0.00,,,0.00,Wunderground v.1.15,2013-02-06 02:50:00,
2013-02-05 21:55:00,36.9,32.5,29.97,SW,236,0.0,2.0,84,0.00,,,0.00,Wunderground v.1.15,2013-02-06 02:55:00,
2013-02-05 22:00:00,36.6,32.2,29.97,SW,236,0.0,2.0,84,0.00,,,0.00,Wunderground v.1.15,2013-02-06 03:00:00,
2013-02-05 22:10:00,36.2,32.1,29.97,SW,236,0.0,2.0,85,0.00,,,0.00,Wunderground v.1.15,2013-02-06 03:10:00,
2013-02-05 22:15:00,36.0,32.5,29.97,SW,236,0.0,2.0,87,0.00,,,0.00,Wunderground v.1.15,2013-02-06 03:15:00,
2013-02-05 22:20:00,35.8,32.3,29.97,SW,236,0.0,2.0,87,0.00,,,0.00,Wunderground v.1.15,2013-02-06 03:20:00,
2013-02-05 22:30:00,35.5,32.3,29.97,SW,236,0.0,2.0,88,0.00,,,0.00,Wunderground v.1.15,2013-02-06 03:30:00,
2013-02-05 22:35:00,35.3,32.1,29.97,SW,236,0.0,2.0,88,0.00,,,0.00,Wunderground v.1.15,2013-02-06 03:35:00,
2013-02-05 22:40:00,35.1,31.9,29.97,SW,236,0.0,2.0,88,0.00,,,0.00,Wunderground v.1.15,2013-02-06 03:40:00,
2013-02-05 22:50:00,34.7,31.5,29.97,SW,236,0.0,2.0,88,0.00,,,0.00,Wunderground v.1.15,2013-02-06 03:50:00,
2013-02-05 22:55:00,34.6,31.4,29.97,SW,236,0.0,2.0,88,0.00,,,0.00,Wunderground v.1.15,2013-02-06 03:55:00,
2013-02-05 23:00:00,34.5,31.6,29.97,SW,236,0.0,2.0,89,0.00,,,0.00,Wunderground v.1.15,2013-02-06 04:00:00,
2013-02-05 23:05:00,34.4,31.5,29.97,SW,236,0.0,2.0,89,0.00,,,0.00,Wunderground v.1.15,2013-02-06 04:05:00,
2013-02-05 23:15:00,34.3,31.4,29.97,SW,236,0.0,2.0,89,0.00,,,0.00,Wunderground v.1.15,2013-02-06 04:15:00,
2013-02-05 23:20:00,34.2,31.3,29.97,SW,236,0.0,2.0,89,0.00,,,0.00,Wunderground v.1.15,2013-02-06 04:20:00,
2013-02-05 23:25:00,34.2,31.3,29.97,SW,236,0.0,2.0,89,0.00,,,0.00,Wunderground v.1.15,2013-02-06 04:25:00,
2013-02-05 23:35:00,34.1,31.2,29.97,SW,236,0.0,2.0,89,0.00,,,0.00,Wunderground v.1.15,2013-02-06 04:35:00,
2013-02-05 23:40:00,34.1,31.2,29.97,SW,236,0.0,2.0,89,0.00,,,0.00,Wunderground v.1.15,2013-02-06 04:40:00,
2013-02-05 23:45:00,34.1,31.5,29.97,SW,236,0.0,2.0,90,0.00,,,0.00,Wunderground v.1.15,2013-02-06 04:45:00,
2013-02-05 23:55:00,34.1,31.5,29.98,SW,236,0.0,2.0,90,0.00,,,0.00,Wunderground v.1.15,2013-02-06 04:55:00,